Mackinac Island, MI

5:25 AM EDT on May 29, 2017 (GMT -0400)
Mackinac Island

Weather History for KMCD - October, 2012

Change the Weather History Date:

Friday, October 5, 2012

  Actual Average Record
Temperature  
Mean Temperature 50 °F -  
Max Temperature 57 °F 56 °F 82 °F (2005)
Min Temperature 44 °F 43 °F 32 °F (1980)
Degree Days  
Heating Degree Days 14    
Moisture  
Dew Point 34 °F    
Average Humidity 59    
Maximum Humidity 66    
Minimum Humidity 51    
Precipitation  
Precipitation 0.00 in - - ()
Sea Level Pressure  
Sea Level Pressure 29.87 in    
Wind  
Wind Speed 16 mph (West)    
Max Wind Speed 23 mph    
Max Gust Speed 32 mph    
Visibility 10 miles    
Events Rain    
Averages and records for this station are not official NWS values.
T = Trace of Precipitation, MM = Missing Value Source: NWS Daily Summary

Daily Weather History Graph

Daily Weather History Graph

Search for Another Location

Airport or City:

Trip Planner

Search our weather history database for the weather conditions in past years. The results will help you decide how hot, cold, wet, or windy it might be!

Date:

Astronomy

Oct. 05, 2012 Rise Set
Actual Time 7:42 AM EDT 7:10 PM EDT
Civil Twilight 7:12 AM EDT 7:39 PM EDT
Nautical Twilight 6:38 AM EDT 8:14 PM EDT
Astronomical Twilight 6:03 AM EDT 8:49 PM EDT
Moon 10:18 PM EDT (10/5) 1:04 PM EDT (10/5)
Length of Visible Light 12h 26m
Length of Day
11h 27m
Waning Gibbous, 74% of the Moon is Illuminated
Oct 5
Waning Gibbous
Oct 8
Last Quarter
Oct 15
New
Oct 21
First Quarter
Oct 29
Full

Hourly Weather History & Observations

Time (EDT) Temp. Windchill Dew Point Humidity Pressure Visibility Wind Dir Wind Speed Gust Speed Precip Events Conditions
12:15 AM 57.2 °F - 41.2 °F 55% 29.85 in 10.0 mi West 17.3 mph 31.1 mph N/A   Clear
12:34 AM 56.3 °F - 41.2 °F 57% 29.85 in 10.0 mi West 18.4 mph 29.9 mph N/A   Clear
12:54 AM 55.6 °F - 39.7 °F 55% 29.86 in 10.0 mi West 15.0 mph 24.2 mph N/A   Clear
1:15 AM 54.7 °F - 39.7 °F 57% 29.86 in 10.0 mi WSW 11.5 mph 18.4 mph N/A   Clear
1:34 AM 54.5 °F - 40.5 °F 59% 29.86 in 10.0 mi WSW 13.8 mph 23.0 mph N/A   Clear
1:54 AM 53.8 °F - 39.6 °F 59% 29.86 in 10.0 mi WSW 16.1 mph 27.6 mph N/A   Clear
2:15 AM 53.1 °F - 39.0 °F 59% 29.87 in 10.0 mi WSW 15.0 mph 25.3 mph N/A   Clear
2:34 AM 52.2 °F - 38.5 °F 60% 29.88 in 10.0 mi West 11.5 mph 26.5 mph N/A   Clear
2:54 AM 51.3 °F - 36.3 °F 57% 29.89 in 10.0 mi West 18.4 mph 27.6 mph N/A   Clear
3:14 AM 50.9 °F - 37.0 °F 59% 29.88 in 10.0 mi West 18.4 mph 27.6 mph N/A   Mostly Cloudy
3:34 AM 50.2 °F - 36.7 °F 60% 29.88 in 10.0 mi West 23.0 mph 29.9 mph N/A   Mostly Cloudy
3:55 AM 50.0 °F - 35.8 °F 58% 29.88 in 10.0 mi West 18.4 mph 26.5 mph N/A   Mostly Cloudy
4:14 AM 49.6 °F - 36.0 °F 59% 29.88 in 10.0 mi West 16.1 mph 23.0 mph N/A   Overcast
4:34 AM 49.6 °F - 37.4 °F 63% 29.88 in 10.0 mi West 16.1 mph 25.3 mph N/A   Overcast
4:55 AM 48.7 °F - 35.4 °F 60% 29.88 in 10.0 mi West 17.3 mph 25.3 mph N/A   Overcast
5:14 AM 48.7 °F - 36.3 °F 62% 29.89 in 10.0 mi West 13.8 mph 25.3 mph N/A   Overcast
5:34 AM 48.4 °F - 35.6 °F 61% 29.89 in 10.0 mi West 20.7 mph 25.3 mph N/A   Overcast
5:55 AM 48.7 °F - 36.1 °F 62% 29.89 in 10.0 mi WSW 11.5 mph 21.9 mph N/A   Overcast
6:14 AM 48.7 °F - 37.0 °F 64% 29.88 in 10.0 mi WSW 12.7 mph 26.5 mph N/A   Overcast
6:34 AM 48.7 °F - 36.5 °F 63% 29.88 in 10.0 mi WSW 13.8 mph 27.6 mph N/A   Overcast
6:55 AM 48.2 °F - 36.0 °F 63% 29.89 in 10.0 mi WSW 18.4 mph 29.9 mph N/A   Overcast
7:14 AM 47.5 °F - 34.9 °F 62% 29.89 in 10.0 mi West 21.9 mph 32.2 mph N/A   Overcast
7:34 AM 47.5 °F - 36.5 °F 66% 29.89 in 10.0 mi WSW 15.0 mph 26.5 mph N/A   Overcast
7:55 AM 47.3 °F - 36.1 °F 65% 29.89 in 10.0 mi WSW 13.8 mph 27.6 mph N/A   Overcast
8:14 AM 47.1 °F - 35.2 °F 63% 29.89 in 10.0 mi West 15.0 mph 31.1 mph N/A   Overcast
8:35 AM 46.4 °F 39.8 °F 34.9 °F 64% 29.90 in 10.0 mi WSW 16.1 mph 29.9 mph N/A   Overcast
8:54 AM 45.9 °F 37.8 °F 33.3 °F 61% 29.91 in 10.0 mi West 21.9 mph 28.8 mph N/A   Overcast
9:14 AM 45.9 °F 38.5 °F 34.5 °F 65% 29.90 in 10.0 mi West 18.4 mph 26.5 mph N/A   Overcast
9:35 AM 45.9 °F 39.1 °F 34.0 °F 63% 29.90 in 10.0 mi West 16.1 mph 28.8 mph N/A   Overcast
9:54 AM 45.5 °F 37.3 °F 34.2 °F 65% 29.90 in 10.0 mi West 21.9 mph 32.2 mph N/A   Overcast
10:14 AM 45.5 °F 37.3 °F 33.8 °F 64% 29.90 in 10.0 mi West 21.9 mph 28.8 mph N/A   Overcast
10:35 AM 45.5 °F 37.8 °F 33.4 °F 63% 29.90 in 10.0 mi West 19.6 mph 26.5 mph N/A   Overcast
10:54 AM 45.7 °F 38.3 °F 34.9 °F 66% 29.90 in 10.0 mi West 18.4 mph 25.3 mph N/A   Overcast
11:14 AM 45.9 °F 39.4 °F 34.2 °F 64% 29.90 in 10.0 mi WSW 15.0 mph 26.5 mph N/A   Overcast
11:35 AM 46.4 °F 39.8 °F 34.7 °F 64% 29.90 in 10.0 mi WSW 16.1 mph 24.2 mph N/A   Overcast
11:54 AM 46.8 °F - 34.7 °F 63% 29.90 in 10.0 mi WSW 12.7 mph 26.5 mph N/A   Overcast
12:35 PM 47.3 °F - 35.4 °F 63% 29.90 in 10.0 mi WSW 18.4 mph 26.5 mph N/A   Overcast
12:54 PM 47.3 °F - 35.1 °F 62% 29.90 in 10.0 mi WSW 16.1 mph 25.3 mph N/A   Overcast
1:14 PM 47.5 °F - 35.1 °F 62% 29.89 in 10.0 mi WSW 16.1 mph 27.6 mph N/A   Overcast
1:35 PM 47.7 °F - 34.3 °F 60% 29.89 in 10.0 mi WSW 21.9 mph 28.8 mph N/A   Overcast
1:54 PM 47.5 °F - 35.2 °F 63% 29.88 in 10.0 mi WSW 18.4 mph 26.5 mph N/A   Overcast
2:35 PM 47.5 °F - 35.4 °F 63% 29.87 in 10.0 mi WSW 17.3 mph 31.1 mph N/A   Overcast
2:54 PM 47.5 °F - 35.8 °F 64% 29.87 in 10.0 mi WSW 15.0 mph 29.9 mph N/A   Overcast
3:14 PM 47.3 °F - 33.4 °F 59% 29.86 in 10.0 mi WSW 15.0 mph 29.9 mph N/A   Overcast
3:35 PM 47.3 °F - 34.2 °F 60% 29.86 in 10.0 mi WSW 12.7 mph 24.2 mph N/A   Overcast
3:54 PM 47.7 °F - 33.8 °F 59% 29.86 in 10.0 mi West 19.6 mph 26.5 mph N/A   Overcast
4:14 PM 47.5 °F - 33.3 °F 58% 29.86 in 10.0 mi WSW 13.8 mph 25.3 mph N/A   Overcast
4:35 PM 47.7 °F - 34.0 °F 59% 29.86 in 10.0 mi WSW 13.8 mph 25.3 mph N/A   Overcast
4:54 PM 47.8 °F - 34.2 °F 59% 29.86 in 10.0 mi WSW 12.7 mph 25.3 mph N/A   Overcast
5:14 PM 48.2 °F - 33.4 °F 57% 29.86 in 10.0 mi WSW 15.0 mph 27.6 mph N/A   Overcast
5:35 PM 48.2 °F - 33.3 °F 56% 29.85 in 10.0 mi WSW 18.4 mph 26.5 mph N/A   Overcast
5:54 PM 48.2 °F - 33.8 °F 58% 29.85 in 10.0 mi WSW 15.0 mph 26.5 mph N/A   Overcast
6:15 PM 48.6 °F - 33.1 °F 55% 29.85 in 10.0 mi WSW 10.4 mph 24.2 mph N/A   Overcast
6:34 PM 48.9 °F - 33.6 °F 56% 29.85 in 10.0 mi WSW 13.8 mph 25.3 mph N/A   Overcast
6:54 PM 49.1 °F - 33.1 °F 54% 29.85 in 10.0 mi WSW 11.5 mph 21.9 mph N/A   Overcast
7:15 PM 49.1 °F - 33.4 °F 55% 29.84 in 10.0 mi West 16.1 mph 23.0 mph N/A   Overcast
7:35 PM 47.8 °F - 32.7 °F 56% 29.85 in 10.0 mi West 12.7 mph - N/A Rain Light Rain
7:54 PM 47.8 °F - 32.0 °F 54% 29.84 in 10.0 mi West 15.0 mph 21.9 mph N/A   Overcast
8:15 PM 46.9 °F - 30.7 °F 53% 29.85 in 10.0 mi NW 10.4 mph 19.6 mph N/A   Overcast
8:34 PM 46.4 °F 41.9 °F 29.3 °F 51% 29.84 in 10.0 mi NW 9.2 mph - N/A   Overcast
8:54 PM 45.9 °F 40.4 °F 30.2 °F 54% 29.84 in 10.0 mi West 11.5 mph 17.3 mph N/A   Overcast
9:15 PM 45.7 °F 38.8 °F 29.3 °F 53% 29.85 in 10.0 mi West 16.1 mph 21.9 mph N/A   Overcast
9:34 PM 45.5 °F 39.6 °F 28.4 °F 51% 29.85 in 10.0 mi West 12.7 mph 24.2 mph N/A   Overcast
9:54 PM 44.8 °F 37.7 °F 28.4 °F 53% 29.85 in 10.0 mi WNW 16.1 mph 21.9 mph N/A   Overcast
10:15 PM 44.6 °F 38.8 °F 27.7 °F 52% 29.84 in 10.0 mi WNW 11.5 mph 24.2 mph N/A   Overcast
10:34 PM 44.6 °F 38.4 °F 27.7 °F 52% 29.84 in 10.0 mi West 12.7 mph 20.7 mph N/A   Overcast
10:54 PM 44.6 °F 38.1 °F 28.0 °F 52% 29.83 in 10.0 mi West 13.8 mph 23.0 mph N/A   Overcast
11:34 PM 44.1 °F 37.4 °F 27.5 °F 52% 29.83 in 10.0 mi WNW 13.8 mph 26.5 mph N/A   Overcast
11:54 PM 44.1 °F 37.4 °F 27.7 °F 53% 29.82 in 10.0 mi West 13.8 mph 24.2 mph N/A   Overcast